createdAt,value
2018-07-24T00:02:07.115Z,12.67
2018-07-24T00:04:39.761Z,11.60
2018-07-24T00:07:09.520Z,10.47
2018-07-24T00:09:38.772Z,12.33
2018-07-24T00:12:06.828Z,12.67
2018-07-24T00:14:42.448Z,12.97
2018-07-24T00:17:18.219Z,15.27
2018-07-24T00:19:49.370Z,14.60
2018-07-24T00:25:07.779Z,12.13
2018-07-24T00:27:39.467Z,12.03
2018-07-24T00:30:09.026Z,13.47
2018-07-24T00:32:37.107Z,13.43
2018-07-24T00:35:10.985Z,12.93
2018-07-24T00:37:48.696Z,14.07
2018-07-24T00:40:16.793Z,10.60
2018-07-24T00:42:44.860Z,12.27
2018-07-24T00:45:13.182Z,19.80
2018-07-24T00:47:41.162Z,13.43
2018-07-24T00:50:19.075Z,13.97
2018-07-24T00:52:50.158Z,15.60
2018-07-24T00:55:18.362Z,18.47
2018-07-24T00:57:49.548Z,13.17
2018-07-24T01:00:17.610Z,12.57
2018-07-24T01:02:45.469Z,11.50
2018-07-24T01:05:13.540Z,10.50
2018-07-24T01:07:49.078Z,12.67
2018-07-24T01:10:20.182Z,12.53
2018-07-24T01:12:48.784Z,15.23
2018-07-24T01:15:17.018Z,12.73
2018-07-24T01:17:45.068Z,11.73
2018-07-24T01:20:13.125Z,11.10
2018-07-24T01:22:41.222Z,12.03
2018-07-24T01:25:19.007Z,11.30
2018-07-24T01:27:46.931Z,11.97
2018-07-24T01:30:14.964Z,10.07
2018-07-24T01:32:48.682Z,9.30
2018-07-24T01:35:16.732Z,15.40
2018-07-24T01:37:44.825Z,10.23
2018-07-24T01:40:12.870Z,10.47
2018-07-24T01:42:40.953Z,12.20
2018-07-24T01:45:09.029Z,10.50
2018-07-24T01:47:37.104Z,12.07
2018-07-24T01:50:05.206Z,13.43
2018-07-24T01:52:38.770Z,12.17
2018-07-24T01:55:07.538Z,13.17
2018-07-24T01:57:41.107Z,24.80
2018-07-24T02:00:19.567Z,17.30
2018-07-24T02:02:47.656Z,22.33
2018-07-24T02:05:15.763Z,24.30
2018-07-24T02:07:43.903Z,32.27
2018-07-24T02:10:19.130Z,26.13
2018-07-24T02:12:47.256Z,20.70
2018-07-24T02:15:15.304Z,16.23
2018-07-24T02:17:49.397Z,13.80
2018-07-24T02:20:17.460Z,12.63
2018-07-24T02:22:49.423Z,13.60
2018-07-24T02:25:18.717Z,14.73
2018-07-24T02:27:46.762Z,18.77
2018-07-24T02:30:18.718Z,20.77
2018-07-24T02:32:50.578Z,23.43
2018-07-24T02:35:19.321Z,30.00
2018-07-24T02:37:47.407Z,19.87
2018-07-24T02:40:15.456Z,18.97
2018-07-24T02:42:43.550Z,16.87
2018-07-24T02:45:18.818Z,29.17
2018-07-24T02:47:46.884Z,32.67
2018-07-24T02:50:15.978Z,29.60
2018-07-24T02:52:44.051Z,30.80
2018-07-24T02:55:18.673Z,32.67
2018-07-24T02:57:46.846Z,27.47
2018-07-24T03:00:15.122Z,27.37
2018-07-24T03:02:50.697Z,27.37
2018-07-24T03:05:18.889Z,25.37
2018-07-24T03:07:46.944Z,19.67
2018-07-24T03:10:18.447Z,26.23
2018-07-24T03:12:52.742Z,29.73
2018-07-24T03:15:23.855Z,29.80
2018-07-24T03:17:51.932Z,21.90
2018-07-24T03:20:29.844Z,23.07
2018-07-24T03:22:57.908Z,19.37
2018-07-24T03:25:25.957Z,19.97
2018-07-24T03:27:54.056Z,17.40
2018-07-24T03:30:28.687Z,18.83
2018-07-24T03:32:56.767Z,19.40
2018-07-24T03:35:24.853Z,13.90
2018-07-24T03:37:52.949Z,14.93
2018-07-24T03:40:21.048Z,17.87
2018-07-24T03:42:49.139Z,19.03
2018-07-24T03:45:17.435Z,19.47
2018-07-24T03:47:45.586Z,21.80
2018-07-24T03:50:13.718Z,23.50
2018-07-24T03:52:48.692Z,20.03
2018-07-24T03:55:16.766Z,23.73
2018-07-24T03:57:48.896Z,17.20
2018-07-24T04:00:16.975Z,14.63
2018-07-24T04:02:45.058Z,7.80
2018-07-24T04:05:19.423Z,6.77
2018-07-24T04:07:51.194Z,4.63
2018-07-24T04:10:20.129Z,10.23
2018-07-24T04:12:48.404Z,9.83
2018-07-24T04:15:19.689Z,11.80
2018-07-24T04:17:48.355Z,10.40
2018-07-24T04:20:16.467Z,8.47
2018-07-24T04:22:56.623Z,7.40
2018-07-24T04:25:24.743Z,8.87
2018-07-24T04:27:52.871Z,9.20
2018-07-24T04:30:21.062Z,7.50
2018-07-24T04:32:59.090Z,7.23
2018-07-24T04:35:30.444Z,7.10
2018-07-24T04:37:59.150Z,7.50
2018-07-24T04:40:27.273Z,7.60
2018-07-24T04:42:55.453Z,7.77
2018-07-24T04:45:29.619Z,8.33
2018-07-24T04:47:58.969Z,8.30
2018-07-24T04:50:27.079Z,8.73
2018-07-24T04:52:55.196Z,7.70
2018-07-24T04:55:23.358Z,8.90
2018-07-24T04:57:58.411Z,10.23
2018-07-24T05:00:26.557Z,9.87
2018-07-24T05:03:01.421Z,9.67
2018-07-24T05:05:29.519Z,8.13
2018-07-24T05:07:57.640Z,9.47
2018-07-24T05:10:25.737Z,9.07
2018-07-24T05:12:53.874Z,9.27
2018-07-24T05:15:28.688Z,8.60
2018-07-24T05:17:59.902Z,9.77
2018-07-24T05:20:29.767Z,7.77
2018-07-24T05:22:59.499Z,7.37
2018-07-24T05:25:27.661Z,8.20
2018-07-24T05:27:59.008Z,6.70
2018-07-24T05:30:27.190Z,6.65
2018-07-24T05:32:55.303Z,6.33
2018-07-24T05:35:23.518Z,6.45
2018-07-24T05:37:51.799Z,7.55
2018-07-24T05:40:29.803Z,6.92
2018-07-24T05:42:58.063Z,5.08
2018-07-24T05:45:26.240Z,5.87
2018-07-24T05:47:54.498Z,5.25
2018-07-24T05:50:28.775Z,4.62
2018-07-24T05:52:57.048Z,6.17
2018-07-24T05:55:25.205Z,5.17
2018-07-24T05:57:59.246Z,4.65
2018-07-24T06:00:27.530Z,4.22
2018-07-24T06:02:59.551Z,6.97
2018-07-24T06:05:27.833Z,3.47
2018-07-24T06:07:55.987Z,4.12
2018-07-24T06:10:24.312Z,4.95
2018-07-24T06:12:52.427Z,3.25
2018-07-24T06:15:28.841Z,6.15
2018-07-24T06:17:57.022Z,3.92
2018-07-24T06:20:31.201Z,4.00
2018-07-24T06:23:00.756Z,3.02
2018-07-24T06:25:39.730Z,6.90
2018-07-24T06:28:09.026Z,4.83
2018-07-24T06:30:37.165Z,3.00
2018-07-24T06:33:05.548Z,7.95
2018-07-24T06:35:40.577Z,3.67
2018-07-24T06:38:10.203Z,3.62
2018-07-24T06:40:39.932Z,3.33
2018-07-24T06:43:08.150Z,4.17
2018-07-24T06:45:40.275Z,2.87
2018-07-24T06:48:08.479Z,3.72
2018-07-24T06:50:36.543Z,3.95
2018-07-24T06:53:07.365Z,2.55
2018-07-24T06:55:35.513Z,3.25
2018-07-24T06:58:03.755Z,3.45
2018-07-24T07:00:38.551Z,2.98
2018-07-24T07:03:06.730Z,3.00
2018-07-24T07:05:34.833Z,2.70
2018-07-24T07:08:10.018Z,2.22
2018-07-24T07:10:38.182Z,2.80
2018-07-24T07:13:10.220Z,2.72
2018-07-24T07:15:39.790Z,2.58
2018-07-24T07:18:07.996Z,2.10
2018-07-24T07:20:39.408Z,3.60
2018-07-24T07:23:09.353Z,2.00
2018-07-24T07:25:39.480Z,2.17
2018-07-24T07:28:10.858Z,1.90
2018-07-24T07:30:49.335Z,2.25
2018-07-24T07:33:17.520Z,3.92
2018-07-24T07:35:49.198Z,3.35
2018-07-24T07:41:09.702Z,1.82
2018-07-24T07:43:38.813Z,2.58
2018-07-24T07:46:07.023Z,2.22
2018-07-24T07:48:41.104Z,2.72
2018-07-24T07:51:19.456Z,3.55
2018-07-24T07:53:47.582Z,5.10
2018-07-24T07:56:15.725Z,2.15
2018-07-24T07:58:43.896Z,4.72
2018-07-24T08:01:19.144Z,2.08
2018-07-24T08:03:47.336Z,4.50
2018-07-24T08:06:19.225Z,2.33
2018-07-24T08:08:48.979Z,1.95
2018-07-24T08:11:17.178Z,3.02
2018-07-24T08:13:51.115Z,2.98
2018-07-24T08:16:29.146Z,1.87
2018-07-24T08:18:57.198Z,2.52
2018-07-24T08:21:25.245Z,4.00
2018-07-24T08:23:59.530Z,1.82
2018-07-24T08:26:27.652Z,2.37
2018-07-24T08:28:59.439Z,4.08
2018-07-24T08:31:27.592Z,3.90
2018-07-24T08:34:01.159Z,1.60
2018-07-24T08:36:38.903Z,1.90
2018-07-24T08:39:09.930Z,5.80
2018-07-24T08:41:38.064Z,3.33
2018-07-24T08:44:06.204Z,2.37
2018-07-24T08:46:34.335Z,3.10
2018-07-24T08:49:02.461Z,4.15
2018-07-24T08:51:38.535Z,4.47
2018-07-24T08:54:09.713Z,3.10
2018-07-24T08:56:39.594Z,3.35
2018-07-24T08:59:07.642Z,1.65
2018-07-24T09:01:39.094Z,1.60
2018-07-24T09:04:09.052Z,1.77
2018-07-24T09:06:37.164Z,1.98
2018-07-24T09:09:12.836Z,1.72
2018-07-24T09:11:41.554Z,1.85
2018-07-24T09:14:20.090Z,2.42
2018-07-24T09:16:49.035Z,4.00
2018-07-24T09:19:18.826Z,1.55
2018-07-24T09:21:50.701Z,2.62
2018-07-24T09:24:28.869Z,5.85
2018-07-24T09:26:57.113Z,3.50
2018-07-24T09:29:25.163Z,2.30
2018-07-24T09:31:53.343Z,2.17
2018-07-24T09:34:21.392Z,1.98
2018-07-24T09:36:49.492Z,1.75
2018-07-24T09:39:20.678Z,1.60
2018-07-24T09:41:58.686Z,1.52
2018-07-24T09:44:29.807Z,2.20
2018-07-24T09:46:57.940Z,1.72
2018-07-24T09:49:29.269Z,3.20
2018-07-24T09:51:57.369Z,2.20
2018-07-24T09:54:31.204Z,3.27
2018-07-24T09:57:09.694Z,2.50
2018-07-24T09:59:37.897Z,1.60
2018-07-24T10:02:06.015Z,3.60
2018-07-24T10:04:34.103Z,2.72
2018-07-24T10:07:08.524Z,6.17
2018-07-24T10:09:36.618Z,4.95
2018-07-24T10:12:11.386Z,4.67
2018-07-24T10:14:39.480Z,1.75
2018-07-24T10:17:09.154Z,2.40
2018-07-24T10:19:37.208Z,2.12
2018-07-24T10:22:11.331Z,2.75
2018-07-24T10:24:48.999Z,2.62
2018-07-24T10:27:17.076Z,3.55
2018-07-24T10:29:45.145Z,2.40
2018-07-24T10:32:19.025Z,1.87
2018-07-24T10:34:47.121Z,2.77
2018-07-24T10:37:21.200Z,3.33
2018-07-24T10:39:49.249Z,2.67
2018-07-24T10:42:20.429Z,1.72
2018-07-24T10:44:49.035Z,3.00
2018-07-24T10:47:18.946Z,4.42
2018-07-24T10:49:48.974Z,3.00
2018-07-24T10:52:17.053Z,3.70
2018-07-24T10:54:45.149Z,2.52
2018-07-24T10:57:13.255Z,2.77
2018-07-24T10:59:41.309Z,4.05
2018-07-24T11:02:19.880Z,3.50
2018-07-24T11:04:48.076Z,3.15
2018-07-24T11:07:16.155Z,3.02
2018-07-24T11:09:44.407Z,4.17
2018-07-24T11:12:18.743Z,3.10
2018-07-24T11:14:46.857Z,4.87
2018-07-24T11:17:20.667Z,1.80
2018-07-24T11:19:48.837Z,3.60
2018-07-24T11:22:16.985Z,3.12
2018-07-24T11:24:50.719Z,1.70
2018-07-24T11:27:28.501Z,2.27
2018-07-24T11:29:56.635Z,4.35
2018-07-24T11:32:30.244Z,5.15
2018-07-24T11:34:58.331Z,3.65
2018-07-24T11:37:26.655Z,3.17
2018-07-24T11:39:54.736Z,2.80
2018-07-24T11:42:28.883Z,1.80
2018-07-24T11:44:56.985Z,7.92
2018-07-24T11:47:29.070Z,2.45
2018-07-24T11:49:58.869Z,2.20
2018-07-24T11:52:30.625Z,4.35
2018-07-24T11:54:58.766Z,1.60
2018-07-24T11:57:26.917Z,6.10
2018-07-24T11:59:56.896Z,3.70
2018-07-24T12:02:24.975Z,2.72
2018-07-24T12:04:53.160Z,2.05
2018-07-24T12:07:28.366Z,4.62
2018-07-24T12:09:56.485Z,4.50
2018-07-24T12:12:30.602Z,5.22
2018-07-24T12:14:58.785Z,7.92
2018-07-24T12:17:26.855Z,3.80
2018-07-24T12:19:54.976Z,3.47
2018-07-24T12:22:23.081Z,3.35
2018-07-24T12:24:51.255Z,4.05
2018-07-24T12:27:29.942Z,5.92
2018-07-24T12:29:58.079Z,3.77
2018-07-24T12:32:26.273Z,1.80
2018-07-24T12:34:54.499Z,4.65
2018-07-24T12:37:28.474Z,3.25
2018-07-24T12:39:56.658Z,3.12
2018-07-24T12:42:24.776Z,3.65
2018-07-24T12:44:52.922Z,3.47
2018-07-24T12:47:28.855Z,2.35
2018-07-24T12:49:56.937Z,4.53
2018-07-24T12:52:25.152Z,3.85
2018-07-24T12:54:53.287Z,3.17
2018-07-24T12:57:28.910Z,7.42
2018-07-24T13:00:00.311Z,3.83
2018-07-24T13:02:29.039Z,2.87
2018-07-24T13:04:57.684Z,3.52
2018-07-24T13:07:25.821Z,2.67
2018-07-24T13:09:54.007Z,3.85
2018-07-24T13:12:28.311Z,3.00
2018-07-24T13:14:56.495Z,3.08
2018-07-24T13:17:24.611Z,3.85
2018-07-24T13:19:58.548Z,1.72
2018-07-24T13:22:26.668Z,3.62
2018-07-24T13:25:00.855Z,3.67
2018-07-24T13:27:28.959Z,3.22
2018-07-24T13:29:57.058Z,2.22
2018-07-24T13:32:30.944Z,4.97
2018-07-24T13:34:59.110Z,5.05
2018-07-24T13:37:27.414Z,2.90
2018-07-24T13:39:55.651Z,2.55
2018-07-24T13:42:23.859Z,2.92
2018-07-24T13:44:52.257Z,2.62
2018-07-24T13:47:20.539Z,2.98
2018-07-24T13:49:50.030Z,1.75
2018-07-24T13:52:19.114Z,2.50
2018-07-24T13:54:49.267Z,1.57
2018-07-24T13:57:17.678Z,2.95
2018-07-24T13:59:46.981Z,2.50
2018-07-24T14:02:16.480Z,2.75
2018-07-24T14:04:45.754Z,3.00
2018-07-24T14:07:14.226Z,3.87
2018-07-24T14:09:42.628Z,3.83
2018-07-24T14:12:11.011Z,3.55
2018-07-24T14:14:39.432Z,3.40
2018-07-24T14:17:10.489Z,3.35
2018-07-24T14:19:38.779Z,3.77
2018-07-24T14:22:07.040Z,4.15
2018-07-24T14:24:46.023Z,2.10
2018-07-24T14:27:14.502Z,2.47
2018-07-24T14:29:50.326Z,3.90
2018-07-24T14:32:18.741Z,3.92
2018-07-24T14:34:50.535Z,6.95
2018-07-24T14:37:18.754Z,2.40
2018-07-24T14:39:50.797Z,5.53
2018-07-24T14:42:18.890Z,4.20
2018-07-24T14:44:47.006Z,2.33
2018-07-24T14:47:15.142Z,2.45
2018-07-24T14:49:49.237Z,3.47
2018-07-24T14:52:19.733Z,2.92
2018-07-24T14:54:48.254Z,2.55
2018-07-24T14:57:19.901Z,6.05
2018-07-24T14:59:48.068Z,4.50
2018-07-24T15:02:18.940Z,4.80
2018-07-24T15:04:47.800Z,3.90
2018-07-24T15:07:16.043Z,4.05
2018-07-24T15:09:44.516Z,5.87
2018-07-24T15:12:12.834Z,2.00
2018-07-24T15:14:48.998Z,4.90
2018-07-24T15:17:17.484Z,4.80
2018-07-24T15:19:49.112Z,3.70
2018-07-24T15:22:21.000Z,3.12
2018-07-24T15:24:49.105Z,4.65
2018-07-24T15:27:19.227Z,3.05
2018-07-24T15:29:48.929Z,9.55
2018-07-24T15:32:17.016Z,3.52
2018-07-24T15:34:45.328Z,3.33
2018-07-24T15:37:19.304Z,2.92
2018-07-24T15:39:50.032Z,4.45
2018-07-24T15:42:18.230Z,4.92
2018-07-24T15:44:46.704Z,4.40
2018-07-24T15:47:21.293Z,2.12
2018-07-24T15:50:00.534Z,4.28
2018-07-24T15:52:29.066Z,3.72
2018-07-24T15:54:57.553Z,3.10
2018-07-24T15:57:29.264Z,3.85
2018-07-24T15:59:59.058Z,3.52
2018-07-24T16:02:29.118Z,5.83
2018-07-24T16:05:01.022Z,3.70
2018-07-24T16:07:31.252Z,1.95
2018-07-24T16:09:59.518Z,5.55
2018-07-24T16:12:28.049Z,3.65
2018-07-24T16:14:56.354Z,6.22
2018-07-24T16:17:24.666Z,3.10
2018-07-24T16:19:52.874Z,3.08
2018-07-24T16:22:29.283Z,4.33
2018-07-24T16:24:57.806Z,4.28
2018-07-24T16:27:26.244Z,2.60
2018-07-24T16:29:54.435Z,2.30
2018-07-24T16:32:29.032Z,5.42
2018-07-24T16:34:57.741Z,6.42
2018-07-24T16:37:26.678Z,2.47
2018-07-24T16:39:55.302Z,4.70
2018-07-24T16:42:30.518Z,4.37
2018-07-24T16:44:58.899Z,3.22
2018-07-24T16:47:30.644Z,3.17
2018-07-24T16:49:59.516Z,2.60
2018-07-24T16:52:31.206Z,3.20
2018-07-24T16:54:59.775Z,3.60
2018-07-24T16:57:29.631Z,2.45
2018-07-24T17:05:50.651Z,6.47
2018-07-24T17:08:19.043Z,4.65
2018-07-24T17:10:47.671Z,3.02
2018-07-24T17:13:15.912Z,3.05
2018-07-24T17:15:50.157Z,5.87
2018-07-24T17:18:18.683Z,4.12
2018-07-24T17:20:47.143Z,4.67
2018-07-24T17:23:15.472Z,2.50
2018-07-24T17:25:50.320Z,5.47
2018-07-24T17:30:57.417Z,3.47
2018-07-24T17:33:29.433Z,3.27
2018-07-24T17:35:57.763Z,3.90
2018-07-24T17:38:25.914Z,3.08
2018-07-24T17:41:00.677Z,3.17
2018-07-24T17:43:29.427Z,3.62
2018-07-24T17:45:57.893Z,2.70
2018-07-24T17:48:26.154Z,3.55
2018-07-24T17:50:54.436Z,3.52
2018-07-24T17:53:22.735Z,2.80
2018-07-24T17:55:59.388Z,2.30
2018-07-24T17:58:31.060Z,3.33
2018-07-24T18:01:09.322Z,3.20
2018-07-24T18:03:41.288Z,3.85
2018-07-24T18:06:09.522Z,2.55
2018-07-24T18:08:37.812Z,3.85
2018-07-24T18:11:10.004Z,3.45
2018-07-24T18:13:38.202Z,2.40
2018-07-24T18:16:06.353Z,2.60
2018-07-24T18:18:40.474Z,2.47
2018-07-24T18:21:08.647Z,3.30
2018-07-24T18:23:36.792Z,2.62
2018-07-24T18:26:05.547Z,2.58
2018-07-24T18:31:24.230Z,2.85
2018-07-24T18:33:58.738Z,3.17
2018-07-24T18:36:28.034Z,4.62
2018-07-24T18:38:56.624Z,2.40
2018-07-24T18:41:30.704Z,2.72
2018-07-24T18:44:00.059Z,6.50
2018-07-24T18:46:29.054Z,2.90
2018-07-24T18:49:01.926Z,4.37
2018-07-24T18:51:40.373Z,2.85
2018-07-24T18:54:08.562Z,5.62
2018-07-24T18:56:36.703Z,3.80
2018-07-24T18:59:05.449Z,3.47
2018-07-24T19:01:34.068Z,3.17
2018-07-24T19:04:02.287Z,4.58
2018-07-24T19:06:31.101Z,4.75
2018-07-24T19:08:59.012Z,5.65
2018-07-24T19:11:27.182Z,3.77
2018-07-24T19:13:55.519Z,5.40
2018-07-24T19:16:23.681Z,7.53
2018-07-24T19:18:51.982Z,6.83
2018-07-24T19:21:20.156Z,5.15
2018-07-24T19:23:48.346Z,4.85
2018-07-24T19:26:16.517Z,7.37
2018-07-24T19:28:50.138Z,8.18
2018-07-24T19:31:19.403Z,15.18
2018-07-24T19:33:50.926Z,7.47
2018-07-24T19:36:19.700Z,8.65
2018-07-24T19:38:47.914Z,9.48
2018-07-24T19:41:16.051Z,6.12
2018-07-24T19:43:44.392Z,5.92
2018-07-24T19:46:19.149Z,6.45
2018-07-24T19:48:47.270Z,8.65
2018-07-24T19:51:15.396Z,5.80
2018-07-24T19:53:49.173Z,12.00
2018-07-24T19:56:17.256Z,9.33
2018-07-24T19:58:45.438Z,7.87
2018-07-24T20:01:19.639Z,8.77
2018-07-24T20:03:51.011Z,10.27
2018-07-24T20:06:19.287Z,7.80
2018-07-24T20:08:50.654Z,10.03
2018-07-24T20:11:19.573Z,9.97
2018-07-24T20:13:49.238Z,7.27
2018-07-24T20:16:21.089Z,8.80
2018-07-24T20:18:49.239Z,5.83
2018-07-24T20:21:20.504Z,7.17
2018-07-24T20:23:48.713Z,5.50
2018-07-24T20:26:16.785Z,8.90
2018-07-24T20:28:44.921Z,8.23
2018-07-24T20:31:13.003Z,9.93
2018-07-24T20:33:41.117Z,7.47
2018-07-24T20:36:28.118Z,8.90
2018-07-24T20:38:56.200Z,11.83
2018-07-24T20:41:30.758Z,8.00
2018-07-24T20:44:09.021Z,8.60
2018-07-24T20:46:37.289Z,12.30
2018-07-24T20:49:09.236Z,12.67
2018-07-24T20:51:39.294Z,10.60
2018-07-24T20:54:09.261Z,5.70
2018-07-24T20:56:39.230Z,11.33
2018-07-24T20:59:09.164Z,6.37
2018-07-24T21:01:40.272Z,8.53
2018-07-24T21:04:10.031Z,9.37
2018-07-24T21:06:38.123Z,18.13
2018-07-24T21:09:08.421Z,5.40
2018-07-24T21:11:40.526Z,9.60
2018-07-24T21:14:10.165Z,10.20
2018-07-24T21:16:38.345Z,9.73
2018-07-24T21:19:07.029Z,9.57
2018-07-24T21:21:35.119Z,7.60
2018-07-24T21:24:03.213Z,8.43
2018-07-24T21:26:39.203Z,6.10
2018-07-24T21:29:07.281Z,8.27
2018-07-24T21:31:35.359Z,7.60
2018-07-24T21:34:09.461Z,7.97
2018-07-24T21:36:37.583Z,5.37
2018-07-24T21:39:10.778Z,6.20
2018-07-24T21:41:39.827Z,6.50
2018-07-24T21:44:09.851Z,8.33
2018-07-24T21:46:39.793Z,8.03
2018-07-24T21:49:07.913Z,6.37
2018-07-24T21:51:36.062Z,5.30
2018-07-24T21:54:09.916Z,6.13
2018-07-24T21:56:37.992Z,6.57
2018-07-24T21:59:09.619Z,7.03
2018-07-24T22:01:41.029Z,11.30
2018-07-24T22:04:09.189Z,11.07
2018-07-24T22:06:37.332Z,8.83
2018-07-24T22:09:08.141Z,8.83
2018-07-24T22:11:36.307Z,13.30
2018-07-24T22:14:04.457Z,8.53
2018-07-24T22:16:32.583Z,7.03
2018-07-24T22:19:08.805Z,9.80
2018-07-24T22:21:37.150Z,9.43
2018-07-24T22:24:05.256Z,9.17
2018-07-24T22:26:33.342Z,12.10
2018-07-24T22:29:01.434Z,9.53
2018-07-24T22:31:39.762Z,8.07
2018-07-24T22:34:10.947Z,14.27
2018-07-24T22:36:39.789Z,9.23
2018-07-24T22:39:10.907Z,8.53
2018-07-24T22:41:39.438Z,6.10
2018-07-24T22:44:09.367Z,8.50
2018-07-24T22:46:37.499Z,10.50
2018-07-24T22:49:06.042Z,7.70
2018-07-24T22:51:34.144Z,8.43
2018-07-24T22:54:02.319Z,8.20
2018-07-24T22:56:39.955Z,10.27
2018-07-24T22:59:08.012Z,9.00
2018-07-24T23:01:36.143Z,8.77
2018-07-24T23:06:57.014Z,9.17
2018-07-24T23:09:25.153Z,9.23
2018-07-24T23:11:59.530Z,7.87
2018-07-24T23:14:27.636Z,10.17
2018-07-24T23:16:55.833Z,10.60
2018-07-24T23:19:29.663Z,11.10
2018-07-24T23:21:58.036Z,8.97
2018-07-24T23:24:26.142Z,11.70
2018-07-24T23:26:59.776Z,10.03
2018-07-24T23:29:29.277Z,10.33
2018-07-24T23:32:01.221Z,8.87
2018-07-24T23:34:39.237Z,11.87
2018-07-24T23:37:07.373Z,10.00
2018-07-24T23:39:39.293Z,7.73
2018-07-24T23:42:10.982Z,8.27
2018-07-24T23:44:39.921Z,11.73
2018-07-24T23:47:09.738Z,13.43
2018-07-24T23:49:39.555Z,12.57
2018-07-24T23:52:07.656Z,11.13
2018-07-24T23:54:35.855Z,8.37
2018-07-24T23:57:03.991Z,8.30
2018-07-24T23:59:32.076Z,8.43
